Time;durP1;ratioP1;P1;durP2;ratioP2;P2;SDS_P1;SDS_P2;PMS_P1;PMS_P2;Temp;Humidity;BMP_temperature;BMP_pressure;BME280_temperature;BME280_humidity;BME280_pressure;Samples;Min_cycle;Max_cycle;Signal;HPM_P1;HPM_P2
2022/06/05 00:01:57;;;;;;;;;;;19.10;99.90;;;;;;5035557;28;20478;-62
2022/06/05 00:04:31;;;;;;;;;;;19.10;99.90;;;;;;5037879;28;19963;-63
2022/06/05 00:07:04;;;;;;;;;;;19.10;99.90;;;;;;5041023;28;19963;-61
2022/06/05 00:09:35;;;;;;;;;;;19.10;99.90;;;;;;5030855;28;19966;-62
2022/06/05 00:12:05;;;;;;;;;;;19.00;99.90;;;;;;5031078;28;20086;-61
2022/06/05 00:14:33;;;;;;;;;;;19.00;99.90;;;;;;5030602;28;20009;-62
2022/06/05 00:17:02;;;;;;;;;;;19.00;99.90;;;;;;5030038;28;20009;-61
2022/06/05 00:19:30;;;;;;;;;;;19.00;99.90;;;;;;5030781;28;20050;-62
2022/06/05 00:21:58;;;;;;;;;;;19.00;99.90;;;;;;5030204;28;20021;-60
2022/06/05 00:24:26;;;;;;;;;;;19.00;99.90;;;;;;5030142;28;20001;-62
2022/06/05 00:26:56;;;;;;;;;;;19.00;99.90;;;;;;5030241;28;19959;-61
2022/06/05 00:29:40;;;;;;;;;;;18.90;99.90;;;;;;5030585;28;20007;-61
2022/06/05 00:32:11;;;;;;;;;;;19.00;99.90;;;;;;5030527;28;20021;-61
2022/06/05 00:34:39;;;;;;;;;;;19.00;99.90;;;;;;5046027;28;19993;-61
2022/06/05 00:37:10;;;;;;;;;;;18.90;99.90;;;;;;5051339;28;20002;-61
2022/06/05 00:39:43;;;;;;;;;;;18.90;99.90;;;;;;5050658;28;19959;-61
2022/06/05 00:42:11;;;;;;;;;;;18.90;99.90;;;;;;5045308;28;20467;-61
2022/06/05 00:44:41;;;;;;;;;;;18.90;99.90;;;;;;5051080;28;20544;-61
2022/06/05 00:47:10;;;;;;;;;;;18.80;99.90;;;;;;5048865;28;20054;-61
2022/06/05 00:49:41;;;;;;;;;;;18.80;99.90;;;;;;5053301;28;19971;-60
2022/06/05 00:52:10;;;;;;;;;;;18.80;99.90;;;;;;5054688;28;19963;-61
2022/06/05 00:54:38;;;;;;;;;;;18.80;99.90;;;;;;5046569;28;20002;-63
2022/06/05 00:57:07;;;;;;;;;;;18.80;99.90;;;;;;5050818;28;20345;-62
2022/06/05 00:59:35;;;;;;;;;;;18.80;99.90;;;;;;5051003;28;20100;-62
2022/06/05 01:02:03;;;;;;;;;;;18.80;99.90;;;;;;5050699;28;19963;-61
2022/06/05 01:04:32;;;;;;;;;;;18.80;99.90;;;;;;5051833;28;20010;-62
2022/06/05 01:07:06;;;;;;;;;;;18.80;99.90;;;;;;5050894;28;20021;-62
2022/06/05 01:09:34;;;;;;;;;;;18.70;99.90;;;;;;5050730;28;20020;-62
2022/06/05 01:12:07;;;;;;;;;;;18.70;99.90;;;;;;5049914;28;20129;-61
2022/06/05 01:14:43;;;;;;;;;;;18.80;99.90;;;;;;5051019;28;20447;-62
2022/06/05 01:17:14;;;;;;;;;;;18.90;99.90;;;;;;5047956;28;20020;-61
2022/06/05 01:19:43;;;;;;;;;;;19.00;99.90;;;;;;5050777;28;19963;-61
2022/06/05 01:22:29;;;;;;;;;;;18.90;99.90;;;;;;5050239;28;20009;-60
2022/06/05 01:25:05;;;;;;;;;;;18.90;99.90;;;;;;5050584;28;20009;-60
2022/06/05 01:27:37;;;;;;;;;;;18.80;99.90;;;;;;5050072;28;20021;-60
2022/06/05 01:30:09;;;;;;;;;;;18.80;99.90;;;;;;5050340;28;19998;-61
2022/06/05 01:32:39;;;;;;;;;;;18.70;99.90;;;;;;5049920;28;20960;-61
2022/06/05 01:35:17;;;;;;;;;;;18.70;99.90;;;;;;5050487;28;20016;-61
2022/06/05 01:37:46;;;;;;;;;;;18.60;99.90;;;;;;5050399;28;20001;-61
2022/06/05 01:40:16;;;;;;;;;;;18.60;99.90;;;;;;5053455;28;19958;-61
2022/06/05 01:42:47;;;;;;;;;;;18.60;99.90;;;;;;5051373;28;19994;-60
2022/06/05 01:45:18;;;;;;;;;;;18.60;99.90;;;;;;5048740;28;20012;-61
2022/06/05 01:47:48;;;;;;;;;;;18.50;99.90;;;;;;5048705;28;20399;-61
2022/06/05 01:50:18;;;;;;;;;;;18.50;99.90;;;;;;5050021;28;19990;-60
2022/06/05 01:52:48;;;;;;;;;;;18.50;99.90;;;;;;5047478;28;20330;-60
2022/06/05 01:55:17;;;;;;;;;;;18.50;99.90;;;;;;5047997;28;19978;-60
2022/06/05 01:57:48;;;;;;;;;;;18.50;99.90;;;;;;5044865;28;20432;-61
2022/06/05 02:00:17;;;;;;;;;;;18.50;99.90;;;;;;5045039;28;20050;-61
2022/06/05 02:02:46;;;;;;;;;;;18.50;99.90;;;;;;5048894;28;20488;-61
2022/06/05 02:05:15;;;;;;;;;;;18.50;99.90;;;;;;5049327;28;19958;-61
2022/06/05 02:07:45;;;;;;;;;;;18.50;99.90;;;;;;5048575;28;20009;-60
2022/06/05 02:10:19;;;;;;;;;;;18.50;99.90;;;;;;5045066;28;20045;-61
2022/06/05 02:12:49;;;;;;;;;;;18.50;99.90;;;;;;5047438;28;20416;-60
2022/06/05 02:15:17;;;;;;;;;;;18.40;99.90;;;;;;5049549;28;19963;-61
2022/06/05 02:17:44;;;;;;;;;;;18.40;99.90;;;;;;5049165;28;20413;-61
2022/06/05 02:20:12;;;;;;;;;;;18.40;99.90;;;;;;5050005;28;20005;-60
2022/06/05 02:22:42;;;;;;;;;;;18.40;99.90;;;;;;5047068;28;20518;-61
2022/06/05 02:25:11;;;;;;;;;;;18.30;99.90;;;;;;5049731;28;20061;-61
2022/06/05 02:27:39;;;;;;;;;;;18.40;99.90;;;;;;5049141;28;20058;-60
2022/06/05 02:30:09;;;;;;;;;;;18.30;99.90;;;;;;5050172;28;19967;-61
2022/06/05 02:32:42;;;;;;;;;;;18.30;99.90;;;;;;5048966;28;19970;-61
2022/06/05 02:35:13;;;;;;;;;;;18.30;99.90;;;;;;5043657;28;20010;-61
2022/06/05 02:37:46;;;;;;;;;;;18.30;99.90;;;;;;5050004;28;20006;-59
2022/06/05 02:40:20;;;;;;;;;;;18.30;99.90;;;;;;5052961;28;20344;-60
2022/06/05 02:42:53;;;;;;;;;;;18.30;99.90;;;;;;5053996;28;19962;-60
2022/06/05 02:45:26;;;;;;;;;;;18.20;99.90;;;;;;5048987;28;19966;-60
2022/06/05 02:47:57;;;;;;;;;;;18.20;99.90;;;;;;5052682;28;19986;-60
2022/06/05 02:50:27;;;;;;;;;;;18.20;99.90;;;;;;5053389;28;20053;-60
2022/06/05 02:52:59;;;;;;;;;;;18.20;99.90;;;;;;5053089;28;19970;-60
2022/06/05 02:55:27;;;;;;;;;;;18.20;99.90;;;;;;5053346;28;20021;-61
2022/06/05 02:57:55;;;;;;;;;;;18.20;99.90;;;;;;5053346;28;19997;-61
2022/06/05 03:00:25;;;;;;;;;;;18.20;99.90;;;;;;5052868;28;20066;-61
2022/06/05 03:05:38;;;;;;;;;;;18.10;99.90;;;;;;5059931;28;20481;-61
2022/06/05 03:08:07;;;;;;;;;;;18.10;99.90;;;;;;5046801;28;20053;-61
2022/06/05 03:10:35;;;;;;;;;;;18.20;99.90;;;;;;5047701;28;20392;-61
2022/06/05 03:13:03;;;;;;;;;;;18.10;99.90;;;;;;5052225;28;20610;-61
2022/06/05 03:15:32;;;;;;;;;;;18.10;99.90;;;;;;5052555;28;19962;-61
2022/06/05 03:18:00;;;;;;;;;;;18.10;99.90;;;;;;5046822;28;20417;-61
2022/06/05 03:20:28;;;;;;;;;;;18.20;99.90;;;;;;5052870;28;19966;-61
2022/06/05 03:22:56;;;;;;;;;;;18.20;99.90;;;;;;5052372;28;20067;-61
2022/06/05 03:25:24;;;;;;;;;;;18.20;99.90;;;;;;5052775;28;19964;-61
2022/06/05 03:27:53;;;;;;;;;;;18.20;99.90;;;;;;5052502;28;20061;-61
2022/06/05 03:30:21;;;;;;;;;;;18.20;99.90;;;;;;5052094;28;19974;-61
2022/06/05 03:32:50;;;;;;;;;;;18.20;99.90;;;;;;5052335;28;20452;-61
2022/06/05 03:35:18;;;;;;;;;;;18.20;99.90;;;;;;5033006;28;20413;-60
2022/06/05 03:37:46;;;;;;;;;;;18.10;99.90;;;;;;5032487;28;20065;-61
2022/06/05 03:40:15;;;;;;;;;;;18.10;99.90;;;;;;5032263;28;19959;-61
2022/06/05 03:42:43;;;;;;;;;;;18.10;99.90;;;;;;5035846;28;20002;-61
2022/06/05 03:45:11;;;;;;;;;;;18.10;99.90;;;;;;5032169;28;20010;-61
2022/06/05 03:47:39;;;;;;;;;;;18.10;99.90;;;;;;5031639;28;20017;-61
2022/06/05 03:50:09;;;;;;;;;;;18.10;99.90;;;;;;5030732;28;20053;-60
2022/06/05 03:52:37;;;;;;;;;;;18.10;99.90;;;;;;5030055;28;20046;-60
2022/06/05 03:55:05;;;;;;;;;;;18.10;99.90;;;;;;5025075;28;20080;-60
2022/06/05 03:57:33;;;;;;;;;;;18.10;99.90;;;;;;5030527;28;20515;-61
2022/06/05 04:00:01;;;;;;;;;;;18.10;99.90;;;;;;5030198;28;20065;-61
2022/06/05 04:02:29;;;;;;;;;;;18.10;99.90;;;;;;5031021;28;20017;-62
2022/06/05 04:04:56;;;;;;;;;;;18.10;99.90;;;;;;5030395;28;19970;-61
2022/06/05 04:07:25;;;;;;;;;;;18.10;99.90;;;;;;5030224;28;20006;-60
2022/06/05 04:09:53;;;;;;;;;;;18.20;99.90;;;;;;5032210;28;19999;-62
2022/06/05 04:12:21;;;;;;;;;;;18.20;99.90;;;;;;5042118;28;19967;-61
2022/06/05 04:14:49;;;;;;;;;;;18.20;99.90;;;;;;5026964;28;20021;-61
2022/06/05 04:17:16;;;;;;;;;;;18.20;99.90;;;;;;5029865;28;19963;-62
2022/06/05 04:19:44;;;;;;;;;;;18.20;99.90;;;;;;5031471;28;20061;-62
2022/06/05 04:22:12;;;;;;;;;;;18.30;99.90;;;;;;5029798;28;20062;-62
2022/06/05 04:24:41;;;;;;;;;;;18.30;99.90;;;;;;5030089;28;19959;-62
2022/06/05 04:27:08;;;;;;;;;;;18.30;99.90;;;;;;5030892;28;19959;-62
2022/06/05 04:29:36;;;;;;;;;;;18.50;99.90;;;;;;5029806;28;20338;-62
2022/06/05 04:32:04;;;;;;;;;;;18.40;99.90;;;;;;5024925;28;19997;-62
2022/06/05 04:34:32;;;;;;;;;;;18.50;99.90;;;;;;5045066;28;20009;-62
2022/06/05 04:37:00;;;;;;;;;;;18.60;99.90;;;;;;5048466;28;19990;-62
2022/06/05 04:39:28;;;;;;;;;;;18.60;99.90;;;;;;5048750;28;20001;-62
2022/06/05 04:41:57;;;;;;;;;;;18.70;99.90;;;;;;5060080;28;19959;-61
2022/06/05 04:44:24;;;;;;;;;;;18.80;99.90;;;;;;5049896;28;20387;-62
2022/06/05 04:46:53;;;;;;;;;;;19.00;99.90;;;;;;5048972;28;20025;-62
2022/06/05 04:49:20;;;;;;;;;;;19.00;99.90;;;;;;5049751;28;20050;-62
2022/06/05 04:51:48;;;;;;;;;;;19.10;99.90;;;;;;5049179;28;20391;-62
2022/06/05 04:54:16;;;;;;;;;;;18.90;99.90;;;;;;5049643;28;19993;-61
2022/06/05 04:56:44;;;;;;;;;;;18.80;99.90;;;;;;5048523;28;20062;-62
2022/06/05 04:59:15;;;;;;;;;;;18.70;99.90;;;;;;5045004;28;20013;-62
2022/06/05 05:01:43;;;;;;;;;;;18.80;99.90;;;;;;5049029;28;20065;-62
2022/06/05 05:04:12;;;;;;;;;;;18.80;99.90;;;;;;5050092;28;20524;-63
2022/06/05 05:06:40;;;;;;;;;;;18.90;99.90;;;;;;5048019;28;20096;-62
2022/06/05 05:09:09;;;;;;;;;;;18.80;99.90;;;;;;5048868;28;20354;-62
2022/06/05 05:11:37;;;;;;;;;;;18.80;99.90;;;;;;5050858;28;19998;-62
2022/06/05 05:14:05;;;;;;;;;;;18.70;99.90;;;;;;5047215;28;20005;-63
2022/06/05 05:16:34;;;;;;;;;;;18.70;99.90;;;;;;5049151;28;20016;-61
2022/06/05 05:19:06;;;;;;;;;;;18.70;99.90;;;;;;5044078;28;20032;-62
2022/06/05 05:21:34;;;;;;;;;;;18.70;99.90;;;;;;5048800;28;20052;-62
2022/06/05 05:24:02;;;;;;;;;;;18.70;99.90;;;;;;5049963;28;20507;-60
2022/06/05 05:26:30;;;;;;;;;;;18.60;99.90;;;;;;5048602;28;20432;-61
2022/06/05 05:28:58;;;;;;;;;;;18.70;99.90;;;;;;5049501;28;20676;-61
2022/06/05 05:31:28;;;;;;;;;;;18.80;99.90;;;;;;5046986;28;19962;-61
2022/06/05 05:33:57;;;;;;;;;;;18.80;99.90;;;;;;5047911;28;19990;-60
2022/06/05 05:36:25;;;;;;;;;;;18.80;99.90;;;;;;5050436;28;20010;-60
2022/06/05 05:44:31;;;;;;;;;;;18.80;99.90;;;;;;5051990;28;19971;-60
2022/06/05 05:46:59;;;;;;;;;;;18.90;99.90;;;;;;5054312;28;20016;-60
2022/06/05 05:49:28;;;;;;;;;;;18.80;99.90;;;;;;5049649;28;20013;-60
2022/06/05 05:51:56;;;;;;;;;;;18.80;99.90;;;;;;5049279;28;20084;-60
2022/06/05 05:54:24;;;;;;;;;;;18.90;99.90;;;;;;5049172;28;20009;-61
2022/06/05 05:56:52;;;;;;;;;;;18.90;99.90;;;;;;5049129;28;19963;-61
2022/06/05 05:59:20;;;;;;;;;;;19.00;99.90;;;;;;5055386;28;20056;-60
2022/06/05 06:01:48;;;;;;;;;;;18.90;99.90;;;;;;5049818;28;19963;-60
2022/06/05 06:04:16;;;;;;;;;;;18.90;99.90;;;;;;5049968;28;19967;-62
2022/06/05 06:06:46;;;;;;;;;;;18.80;99.90;;;;;;5033778;28;19967;-61
2022/06/05 06:09:14;;;;;;;;;;;18.70;99.90;;;;;;5035079;28;20466;-60
2022/06/05 06:11:42;;;;;;;;;;;18.50;99.90;;;;;;5034222;28;20076;-60
2022/06/05 06:14:10;;;;;;;;;;;18.40;99.90;;;;;;5020281;28;20069;-61
2022/06/05 06:16:38;;;;;;;;;;;18.40;99.90;;;;;;5035945;28;20650;-60
2022/06/05 06:19:05;;;;;;;;;;;18.40;99.90;;;;;;5038847;28;20784;-60
2022/06/05 06:21:33;;;;;;;;;;;18.20;99.90;;;;;;5038247;28;19973;-61
2022/06/05 06:24:10;;;;;;;;;;;18.10;99.90;;;;;;5038541;28;20150;-60
2022/06/05 06:26:38;;;;;;;;;;;18.00;99.90;;;;;;5034884;28;19977;-60
2022/06/05 06:29:06;;;;;;;;;;;18.00;99.90;;;;;;5038638;28;20423;-60
2022/06/05 06:31:35;;;;;;;;;;;17.90;99.90;;;;;;5036315;28;19971;-60
2022/06/05 06:34:02;;;;;;;;;;;17.80;99.90;;;;;;5037858;28;20065;-61
2022/06/05 06:36:30;;;;;;;;;;;17.70;99.90;;;;;;5034498;28;19973;-60
2022/06/05 06:39:19;;;;;;;;;;;17.70;99.90;;;;;;5038309;28;19967;-60
2022/06/05 06:41:48;;;;;;;;;;;17.70;99.90;;;;;;5038954;28;19963;-60
2022/06/05 06:44:16;;;;;;;;;;;17.70;99.90;;;;;;5038260;28;19970;-60
2022/06/05 06:46:44;;;;;;;;;;;17.80;99.90;;;;;;5034903;28;20690;-60
2022/06/05 06:49:12;;;;;;;;;;;17.80;99.90;;;;;;5038423;28;20024;-60
2022/06/05 06:51:40;;;;;;;;;;;17.80;99.90;;;;;;5037550;28;20072;-60
2022/06/05 06:54:08;;;;;;;;;;;17.90;99.90;;;;;;5037337;28;19967;-60
2022/06/05 06:56:37;;;;;;;;;;;17.90;99.90;;;;;;5035053;28;20458;-60
2022/06/05 06:59:05;;;;;;;;;;;18.00;99.90;;;;;;5037510;28;20046;-60
2022/06/05 07:01:33;;;;;;;;;;;18.10;99.90;;;;;;5037839;28;20014;-60
2022/06/05 07:04:01;;;;;;;;;;;18.20;99.90;;;;;;5037396;28;19967;-60
2022/06/05 07:06:29;;;;;;;;;;;18.30;99.90;;;;;;5034462;28;20736;-61
2022/06/05 07:08:57;;;;;;;;;;;18.40;99.90;;;;;;5037263;28;20054;-60
2022/06/05 07:11:24;;;;;;;;;;;18.50;99.90;;;;;;5036680;28;20524;-60
2022/06/05 07:13:54;;;;;;;;;;;18.60;99.90;;;;;;5036915;28;20005;-61
2022/06/05 07:16:21;;;;;;;;;;;18.70;99.90;;;;;;5034890;28;20081;-60
2022/06/05 07:18:50;;;;;;;;;;;18.80;99.90;;;;;;5036697;28;19967;-61
2022/06/05 07:21:20;;;;;;;;;;;18.90;99.90;;;;;;5037311;28;20799;-60
2022/06/05 07:23:48;;;;;;;;;;;19.00;99.90;;;;;;5037798;28;20065;-60
2022/06/05 07:26:18;;;;;;;;;;;19.10;99.90;;;;;;5035045;28;20070;-60
2022/06/05 07:28:45;;;;;;;;;;;19.00;99.90;;;;;;5036744;28;19966;-60
2022/06/05 07:31:15;;;;;;;;;;;19.10;99.90;;;;;;5037676;28;20052;-61
2022/06/05 07:33:43;;;;;;;;;;;19.20;99.90;;;;;;5035472;28;20061;-60
2022/06/05 07:36:13;;;;;;;;;;;19.20;99.90;;;;;;5035876;28;19962;-60
2022/06/05 07:38:41;;;;;;;;;;;19.20;99.90;;;;;;5036850;28;20089;-61
2022/06/05 07:41:15;;;;;;;;;;;19.10;99.90;;;;;;5034133;28;20062;-60
2022/06/05 07:43:43;;;;;;;;;;;19.10;99.90;;;;;;5033095;28;20065;-61
2022/06/05 07:46:12;;;;;;;;;;;19.00;99.90;;;;;;5034998;28;19967;-61
2022/06/05 07:48:41;;;;;;;;;;;19.10;99.90;;;;;;5037251;28;19967;-61
2022/06/05 07:56:38;;;;;;;;;;;19.00;99.90;;;;;;5034085;28;19972;-61
2022/06/05 07:59:07;;;;;;;;;;;19.10;99.90;;;;;;5036280;28;20196;-61
2022/06/05 08:01:56;;;;;;;;;;;19.10;99.90;;;;;;5034877;28;19970;-62
2022/06/05 08:04:26;;;;;;;;;;;19.10;99.90;;;;;;5035796;28;19971;-61
2022/06/05 08:06:54;;;;;;;;;;;19.00;99.90;;;;;;5055499;22;20054;-70
2022/06/05 08:09:21;;;;;;;;;;;19.00;99.90;;;;;;5035312;28;20057;-66
2022/06/05 08:11:49;;;;;;;;;;;19.10;99.90;;;;;;5032512;28;19967;-72
2022/06/05 08:14:17;;;;;;;;;;;19.10;99.90;;;;;;5044852;28;20409;-69
2022/06/05 08:16:46;;;;;;;;;;;19.20;99.90;;;;;;5038243;28;20075;-71
2022/06/05 08:19:15;;;;;;;;;;;19.20;99.90;;;;;;5038516;28;19973;-70
2022/06/05 08:21:44;;;;;;;;;;;19.20;99.90;;;;;;5051009;28;19970;-71
2022/06/05 08:24:12;;;;;;;;;;;19.30;99.90;;;;;;5050528;28;20061;-69
2022/06/05 08:26:40;;;;;;;;;;;19.20;99.90;;;;;;5043510;28;20013;-69
2022/06/05 08:29:08;;;;;;;;;;;19.20;99.90;;;;;;5031463;28;20053;-66
2022/06/05 08:31:37;;;;;;;;;;;19.20;99.90;;;;;;5032112;28;19963;-71
2022/06/05 08:34:05;;;;;;;;;;;19.20;99.90;;;;;;5037570;28;19997;-70
2022/06/05 08:36:34;;;;;;;;;;;19.10;99.90;;;;;;5031365;28;19963;-70
2022/06/05 08:41:54;;;;;;;;;;;19.00;99.90;;;;;;5048442;28;20053;-70
2022/06/05 08:44:28;;;;;;;;;;;19.00;99.90;;;;;;5050881;28;20466;-70
2022/06/05 08:46:59;;;;;;;;;;;18.90;99.90;;;;;;5050649;28;20070;-70
2022/06/05 08:49:31;;;;;;;;;;;19.00;99.90;;;;;;5031531;28;19963;-70
2022/06/05 08:52:05;;;;;;;;;;;19.00;99.90;;;;;;5030990;28;20284;-69
2022/06/05 08:54:38;;;;;;;;;;;19.10;99.90;;;;;;5025266;28;19967;-70
2022/06/05 08:57:09;;;;;;;;;;;19.20;99.90;;;;;;5038598;28;20267;-71
2022/06/05 08:59:40;;;;;;;;;;;19.30;99.90;;;;;;5050774;28;20062;-68
2022/06/05 09:02:20;;;;;;;;;;;19.40;99.90;;;;;;5047945;28;20066;-70
2022/06/05 09:04:51;;;;;;;;;;;19.50;99.90;;;;;;5031071;28;19973;-71
2022/06/05 09:07:20;;;;;;;;;;;19.50;99.90;;;;;;5031059;28;19963;-72
2022/06/05 09:09:51;;;;;;;;;;;19.60;99.90;;;;;;5032142;28;19967;-70
2022/06/05 09:12:23;;;;;;;;;;;19.70;99.90;;;;;;5049422;28;20013;-73
2022/06/05 09:14:55;;;;;;;;;;;19.80;99.90;;;;;;5050282;28;20049;-70
2022/06/05 09:17:23;;;;;;;;;;;19.90;99.90;;;;;;5045922;28;19959;-71
2022/06/05 09:19:52;;;;;;;;;;;20.00;99.90;;;;;;5030857;28;19963;-70
2022/06/05 09:22:20;;;;;;;;;;;20.10;99.90;;;;;;5030492;28;20290;-70
2022/06/05 09:25:00;;;;;;;;;;;20.00;99.90;;;;;;5031095;28;20500;-71
2022/06/05 09:27:34;;;;;;;;;;;19.90;99.90;;;;;;5037351;28;19966;-70
2022/06/05 09:30:04;;;;;;;;;;;20.00;99.90;;;;;;5038799;28;19963;-73
2022/06/05 09:32:44;;;;;;;;;;;19.90;99.90;;;;;;5042942;28;19959;-71
2022/06/05 09:35:17;;;;;;;;;;;19.80;99.90;;;;;;5030870;28;19963;-70
2022/06/05 09:37:50;;;;;;;;;;;19.90;99.90;;;;;;5030958;28;20003;-71
2022/06/05 09:40:19;;;;;;;;;;;20.00;99.90;;;;;;5035470;28;20032;-72
2022/06/05 09:42:53;;;;;;;;;;;19.90;99.90;;;;;;5041327;28;19973;-70
2022/06/05 09:45:31;;;;;;;;;;;19.90;99.90;;;;;;5049918;28;20474;-73
2022/06/05 09:48:02;;;;;;;;;;;19.90;99.90;;;;;;5051443;28;19966;-69
2022/06/05 09:50:30;;;;;;;;;;;20.10;99.90;;;;;;5030527;28;20018;-73
2022/06/05 09:52:58;;;;;;;;;;;20.10;99.90;;;;;;5040805;28;19967;-73
2022/06/05 09:55:35;;;;;;;;;;;20.20;99.90;;;;;;5041700;28;19963;-72
2022/06/05 09:58:25;;;;;;;;;;;20.20;99.90;;;;;;5043000;28;19970;-72
2022/06/05 10:00:54;;;;;;;;;;;20.10;99.90;;;;;;5054131;28;19966;-70
2022/06/05 10:03:23;;;;;;;;;;;20.00;99.90;;;;;;5053276;28;19970;-72
2022/06/05 10:06:17;;;;;;;;;;;19.90;99.90;;;;;;5049862;28;20053;-71
2022/06/05 10:08:46;;;;;;;;;;;20.00;99.90;;;;;;5028823;28;20499;-72
2022/06/05 10:11:23;;;;;;;;;;;20.00;99.90;;;;;;5042503;28;20432;-70
2022/06/05 10:13:57;;;;;;;;;;;20.00;99.90;;;;;;5035683;28;20429;-72
2022/06/05 10:16:28;;;;;;;;;;;20.00;99.90;;;;;;5034258;28;20672;-71
2022/06/05 10:18:59;;;;;;;;;;;20.10;99.90;;;;;;5033307;28;20105;-72
2022/06/05 10:21:32;;;;;;;;;;;20.10;99.90;;;;;;5034774;28;20386;-71
2022/06/05 10:24:09;;;;;;;;;;;20.20;99.90;;;;;;5033507;28;20010;-72
2022/06/05 10:26:40;;;;;;;;;;;20.30;99.90;;;;;;5033887;28;19963;-71
2022/06/05 10:29:15;;;;;;;;;;;20.40;99.90;;;;;;5033567;28;20476;-72
2022/06/05 10:31:48;;;;;;;;;;;20.50;99.90;;;;;;5034031;28;20058;-72
2022/06/05 10:34:19;;;;;;;;;;;20.90;99.90;;;;;;5033292;28;19973;-72
2022/06/05 10:36:55;;;;;;;;;;;21.20;99.90;;;;;;5033860;28;19982;-73
2022/06/05 10:39:26;;;;;;;;;;;21.50;99.90;;;;;;5033497;28;20495;-72
2022/06/05 10:42:05;;;;;;;;;;;21.80;99.90;;;;;;5036594;28;20007;-72
2022/06/05 10:44:35;;;;;;;;;;;21.90;99.90;;;;;;5039551;28;19964;-72
2022/06/05 10:47:06;;;;;;;;;;;22.20;99.90;;;;;;5033594;28;20452;-72
2022/06/05 10:49:37;;;;;;;;;;;22.70;99.90;;;;;;5033220;28;20033;-71
2022/06/05 10:52:11;;;;;;;;;;;23.10;99.90;;;;;;5032549;28;20051;-73
2022/06/05 10:54:43;;;;;;;;;;;23.00;99.90;;;;;;5026854;28;20021;-72
2022/06/05 10:57:15;;;;;;;;;;;23.20;99.90;;;;;;5033297;28;19990;-72
2022/06/05 10:59:48;;;;;;;;;;;23.20;99.90;;;;;;5032674;28;20487;-71
2022/06/05 11:02:30;;;;;;;;;;;23.10;99.90;;;;;;5032794;28;19971;-71
2022/06/05 11:05:02;;;;;;;;;;;23.00;99.90;;;;;;5033389;28;20527;-70
2022/06/05 11:07:38;;;;;;;;;;;22.80;99.90;;;;;;5033070;28;19970;-72
2022/06/05 11:10:13;;;;;;;;;;;22.70;99.90;;;;;;5022279;28;20025;-70
2022/06/05 11:15:36;;;;;;;;;;;22.50;99.90;;;;;;4989211;28;20436;-70
2022/06/05 11:18:08;;;;;;;;;;;22.50;99.90;;;;;;5020015;28;20050;-70
2022/06/05 11:20:36;;;;;;;;;;;22.50;99.90;;;;;;5017419;28;19963;-69
2022/06/05 11:23:07;;;;;;;;;;;22.50;99.90;;;;;;5018624;28;19962;-69
2022/06/05 11:25:37;;;;;;;;;;;22.40;99.90;;;;;;5019378;28;20436;-70
2022/06/05 11:28:33;;;;;;;;;;;22.30;99.90;;;;;;5020811;28;20058;-70
2022/06/05 11:31:13;;;;;;;;;;;22.30;99.90;;;;;;5018006;28;20049;-69
2022/06/05 11:33:45;;;;;;;;;;;22.20;99.90;;;;;;5019790;28;19967;-70
2022/06/05 11:36:17;;;;;;;;;;;22.10;99.90;;;;;;5020503;28;20402;-70
2022/06/05 11:38:47;;;;;;;;;;;22.10;99.90;;;;;;5020180;28;19967;-69
2022/06/05 11:41:26;;;;;;;;;;;22.20;99.90;;;;;;5018428;28;20581;-70
2022/06/05 11:44:07;;;;;;;;;;;22.30;99.90;;;;;;5019363;28;20066;-70
2022/06/05 11:46:38;;;;;;;;;;;22.40;99.90;;;;;;5018947;28;19967;-70
2022/06/05 11:49:11;;;;;;;;;;;22.30;99.90;;;;;;5018307;28;19963;-70
2022/06/05 11:51:56;;;;;;;;;;;22.30;99.90;;;;;;5018866;28;19970;-69
2022/06/05 11:54:26;;;;;;;;;;;22.20;99.90;;;;;;5019993;28;20077;-70
2022/06/05 11:56:59;;;;;;;;;;;22.10;99.90;;;;;;5019781;28;20766;-70
2022/06/05 11:59:30;;;;;;;;;;;22.20;99.90;;;;;;5017972;28;20006;-70
2022/06/05 12:02:01;;;;;;;;;;;22.10;99.90;;;;;;5018994;28;20061;-68
2022/06/05 12:04:34;;;;;;;;;;;21.90;99.90;;;;;;5020346;28;20017;-70
2022/06/05 12:07:04;;;;;;;;;;;21.70;99.90;;;;;;5019808;28;19998;-69
2022/06/05 12:09:33;;;;;;;;;;;21.70;99.90;;;;;;5017595;28;20042;-70
2022/06/05 12:12:05;;;;;;;;;;;21.70;99.90;;;;;;5018655;28;20033;-70
2022/06/05 12:14:37;;;;;;;;;;;21.70;99.90;;;;;;5018829;28;20053;-70
2022/06/05 12:17:12;;;;;;;;;;;21.60;99.90;;;;;;5017906;28;19963;-70
2022/06/05 12:19:45;;;;;;;;;;;21.40;99.90;;;;;;5017042;28;20065;-70
2022/06/05 12:22:17;;;;;;;;;;;21.40;99.90;;;;;;5018609;28;20109;-71
2022/06/05 12:24:47;;;;;;;;;;;21.20;99.90;;;;;;5019404;28;19973;-70
2022/06/05 12:27:16;;;;;;;;;;;21.20;99.90;;;;;;5020443;28;19966;-71
2022/06/05 12:29:48;;;;;;;;;;;21.20;99.90;;;;;;5016940;28;19974;-71
2022/06/05 12:32:20;;;;;;;;;;;21.20;99.90;;;;;;5018635;28;20501;-71
2022/06/05 12:34:50;;;;;;;;;;;21.20;99.90;;;;;;5019582;28;19967;-71
2022/06/05 12:37:25;;;;;;;;;;;21.00;99.90;;;;;;5020214;28;20067;-68
2022/06/05 12:39:54;;;;;;;;;;;20.90;99.90;;;;;;5016988;28;19994;-70
2022/06/05 12:42:27;;;;;;;;;;;20.90;99.90;;;;;;5018365;28;20093;-72
2022/06/05 12:44:57;;;;;;;;;;;20.90;99.90;;;;;;5019744;28;20104;-71
2022/06/05 12:47:37;;;;;;;;;;;20.90;99.90;;;;;;5019793;28;19978;-71
2022/06/05 12:50:15;;;;;;;;;;;20.90;99.90;;;;;;5014960;28;19963;-73
2022/06/05 12:52:48;;;;;;;;;;;21.00;99.90;;;;;;5018673;28;20052;-72
2022/06/05 12:55:18;;;;;;;;;;;20.90;99.90;;;;;;5019109;28;19986;-73
2022/06/05 12:57:52;;;;;;;;;;;21.00;99.90;;;;;;5018775;28;19971;-70
2022/06/05 13:00:27;;;;;;;;;;;21.00;99.90;;;;;;5016934;28;19971;-72
2022/06/05 13:02:58;;;;;;;;;;;21.10;99.90;;;;;;5018968;28;19970;-74
2022/06/05 13:05:30;;;;;;;;;;;21.20;99.90;;;;;;5020162;28;20442;-74
2022/06/05 13:08:01;;;;;;;;;;;21.40;99.90;;;;;;5019533;28;20938;-71
2022/06/05 13:10:32;;;;;;;;;;;21.70;99.90;;;;;;5016637;28;19981;-73
2022/06/05 13:13:04;;;;;;;;;;;22.10;99.90;;;;;;5018009;28;20029;-72
2022/06/05 13:15:35;;;;;;;;;;;22.30;99.90;;;;;;5016806;28;19993;-72
2022/06/05 13:18:06;;;;;;;;;;;22.50;99.90;;;;;;5019377;28;20002;-74
2022/06/05 13:20:37;;;;;;;;;;;22.50;99.90;;;;;;5015629;28;19970;-70
2022/06/05 13:23:10;;;;;;;;;;;22.20;99.90;;;;;;5017444;28;19970;-71
2022/06/05 13:25:45;;;;;;;;;;;22.00;99.90;;;;;;5018586;28;20080;-75
2022/06/05 13:28:16;;;;;;;;;;;21.90;99.90;;;;;;5018180;28;19963;-71
2022/06/05 13:30:50;;;;;;;;;;;21.80;99.90;;;;;;5015955;28;19967;-70
2022/06/05 13:33:21;;;;;;;;;;;21.90;99.90;;;;;;5019016;28;19974;-72
2022/06/05 13:35:51;;;;;;;;;;;21.80;99.90;;;;;;5019108;28;19975;-74
2022/06/05 13:38:22;;;;;;;;;;;21.90;99.90;;;;;;5018488;28;19978;-75
2022/06/05 13:40:53;;;;;;;;;;;21.80;99.90;;;;;;5016375;28;20486;-73
2022/06/05 13:43:22;;;;;;;;;;;21.80;99.90;;;;;;5018290;28;19971;-71
2022/06/05 13:46:02;;;;;;;;;;;21.80;99.90;;;;;;5018921;28;19977;-71
2022/06/05 13:48:38;;;;;;;;;;;21.70;99.90;;;;;;5017608;28;19974;-71
2022/06/05 13:51:09;;;;;;;;;;;21.80;99.90;;;;;;5016122;28;20680;-72
2022/06/05 13:53:38;;;;;;;;;;;21.70;99.90;;;;;;5017168;28;19971;-71
2022/06/05 13:56:15;;;;;;;;;;;21.70;99.90;;;;;;5017393;28;20809;-72
2022/06/05 13:58:46;;;;;;;;;;;21.70;99.90;;;;;;5017168;28;19974;-72
2022/06/05 14:01:29;;;;;;;;;;;21.80;99.90;;;;;;5017392;28;19986;-71
2022/06/05 14:03:58;;;;;;;;;;;21.90;99.90;;;;;;5018002;28;19973;-73
2022/06/05 14:06:28;;;;;;;;;;;22.10;99.90;;;;;;4997992;28;19963;-72
2022/06/05 14:08:58;;;;;;;;;;;22.60;99.90;;;;;;5016433;28;20229;-71
2022/06/05 14:11:34;;;;;;;;;;;23.10;99.90;;;;;;5017493;28;19979;-71
2022/06/05 14:14:03;;;;;;;;;;;23.50;99.90;;;;;;5017460;28;19986;-73
2022/06/05 14:16:33;;;;;;;;;;;23.90;99.90;;;;;;5017950;28;19970;-72
2022/06/05 14:19:03;;;;;;;;;;;24.20;99.90;;;;;;5017744;28;20615;-72
2022/06/05 14:21:33;;;;;;;;;;;24.20;99.90;;;;;;5019196;28;19967;-73
2022/06/05 14:24:23;;;;;;;;;;;24.20;99.90;;;;;;5017531;28;19978;-74
2022/06/05 14:26:53;;;;;;;;;;;23.80;99.90;;;;;;5018233;28;20021;-74
2022/06/05 14:29:23;;;;;;;;;;;23.80;99.90;;;;;;5015113;28;20017;-75
2022/06/05 14:31:57;;;;;;;;;;;23.70;99.90;;;;;;5017704;28;20324;-73
2022/06/05 14:34:31;;;;;;;;;;;23.60;99.90;;;;;;5020359;28;20723;-72
2022/06/05 14:37:06;;;;;;;;;;;23.60;99.90;;;;;;5001704;28;19974;-73
2022/06/05 14:39:46;;;;;;;;;;;23.50;99.90;;;;;;5020493;28;19967;-73
2022/06/05 14:42:18;;;;;;;;;;;23.50;99.90;;;;;;5020053;28;19974;-74
2022/06/05 14:44:49;;;;;;;;;;;23.50;99.90;;;;;;5021439;28;20024;-73
2022/06/05 14:47:25;;;;;;;;;;;23.50;99.90;;;;;;5021951;28;19975;-73
2022/06/05 14:49:56;;;;;;;;;;;23.40;99.90;;;;;;5019292;28;20018;-75
2022/06/05 14:52:29;;;;;;;;;;;23.30;99.90;;;;;;5020704;28;20021;-74
2022/06/05 14:57:54;;;;;;;;;;;22.90;99.90;;;;;;5020934;28;19967;-71
2022/06/05 15:00:26;;;;;;;;;;;22.80;99.90;;;;;;5019255;28;20006;-75